sensor_id;sensor_type;location;lat;lon;timestamp;temperature;humidity
4054;DHT22;2042;47.956;9.222;2023-05-13T00:00:14;10.30;1.50
4054;DHT22;2042;47.956;9.222;2023-05-13T00:02:42;10.30;1.50
4054;DHT22;2042;47.956;9.222;2023-05-13T00:05:07;10.30;1.50
4054;DHT22;2042;47.956;9.222;2023-05-13T00:07:33;10.30;1.60
4054;DHT22;2042;47.956;9.222;2023-05-13T00:09:59;10.30;1.50
4054;DHT22;2042;47.956;9.222;2023-05-13T00:12:24;10.30;1.50
4054;DHT22;2042;47.956;9.222;2023-05-13T00:14:50;10.30;1.50
4054;DHT22;2042;47.956;9.222;2023-05-13T00:17:16;10.20;1.40
4054;DHT22;2042;47.956;9.222;2023-05-13T00:19:41;10.20;1.40
4054;DHT22;2042;47.956;9.222;2023-05-13T00:22:07;10.20;1.50
4054;DHT22;2042;47.956;9.222;2023-05-13T00:24:33;10.20;1.50
4054;DHT22;2042;47.956;9.222;2023-05-13T00:26:58;10.20;1.50
4054;DHT22;2042;47.956;9.222;2023-05-13T00:29:24;10.20;1.50
4054;DHT22;2042;47.956;9.222;2023-05-13T00:31:49;10.20;1.50
4054;DHT22;2042;47.956;9.222;2023-05-13T00:34:16;10.10;1.40
4054;DHT22;2042;47.956;9.222;2023-05-13T00:36:43;10.20;1.50
4054;DHT22;2042;47.956;9.222;2023-05-13T00:39:08;10.10;1.40
4054;DHT22;2042;47.956;9.222;2023-05-13T00:41:34;10.10;1.40
4054;DHT22;2042;47.956;9.222;2023-05-13T00:43:59;10.10;1.40
4054;DHT22;2042;47.956;9.222;2023-05-13T00:46:32;10.10;1.50
4054;DHT22;2042;47.956;9.222;2023-05-13T00:48:58;10.10;1.50
4054;DHT22;2042;47.956;9.222;2023-05-13T00:51:25;10.10;1.40
4054;DHT22;2042;47.956;9.222;2023-05-13T00:53:51;10.10;1.40
4054;DHT22;2042;47.956;9.222;2023-05-13T00:56:20;10.00;1.40
4054;DHT22;2042;47.956;9.222;2023-05-13T00:58:46;10.00;1.40
4054;DHT22;2042;47.956;9.222;2023-05-13T01:06:14;10.00;1.50
4054;DHT22;2042;47.956;9.222;2023-05-13T01:11:32;10.00;1.30
4054;DHT22;2042;47.956;9.222;2023-05-13T01:14:10;9.90;2.20
4054;DHT22;2042;47.956;9.222;2023-05-13T01:16:51;9.90;2.50
4054;DHT22;2042;47.956;9.222;2023-05-13T01:19:32;9.90;2.50
4054;DHT22;2042;47.956;9.222;2023-05-13T01:21:59;9.90;2.50
4054;DHT22;2042;47.956;9.222;2023-05-13T01:24:25;9.90;2.30
4054;DHT22;2042;47.956;9.222;2023-05-13T01:26:51;9.90;2.30
4054;DHT22;2042;47.956;9.222;2023-05-13T01:29:16;9.90;2.50
4054;DHT22;2042;47.956;9.222;2023-05-13T01:31:43;9.90;3.10
4054;DHT22;2042;47.956;9.222;2023-05-13T01:34:10;9.90;3.30
4054;DHT22;2042;47.956;9.222;2023-05-13T01:36:39;9.90;3.00
4054;DHT22;2042;47.956;9.222;2023-05-13T01:39:04;9.90;2.90
4054;DHT22;2042;47.956;9.222;2023-05-13T01:41:30;9.80;2.90
4054;DHT22;2042;47.956;9.222;2023-05-13T01:43:56;9.80;3.10
4054;DHT22;2042;47.956;9.222;2023-05-13T01:46:22;9.80;3.40
4054;DHT22;2042;47.956;9.222;2023-05-13T01:48:47;9.80;3.30
4054;DHT22;2042;47.956;9.222;2023-05-13T01:51:13;9.80;3.60
4054;DHT22;2042;47.956;9.222;2023-05-13T01:53:39;9.80;3.40
4054;DHT22;2042;47.956;9.222;2023-05-13T01:56:07;9.80;3.60
4054;DHT22;2042;47.956;9.222;2023-05-13T01:58:33;9.80;3.90
4054;DHT22;2042;47.956;9.222;2023-05-13T02:00:59;9.80;4.30
4054;DHT22;2042;47.956;9.222;2023-05-13T02:03:25;9.70;4.50
4054;DHT22;2042;47.956;9.222;2023-05-13T02:05:50;9.70;4.70
4054;DHT22;2042;47.956;9.222;2023-05-13T02:08:16;9.80;5.10
4054;DHT22;2042;47.956;9.222;2023-05-13T02:10:42;9.70;5.20
4054;DHT22;2042;47.956;9.222;2023-05-13T02:13:07;9.70;5.00
4054;DHT22;2042;47.956;9.222;2023-05-13T02:15:33;9.70;5.10
4054;DHT22;2042;47.956;9.222;2023-05-13T02:17:59;9.70;5.30
4054;DHT22;2042;47.956;9.222;2023-05-13T02:20:24;9.70;5.40
4054;DHT22;2042;47.956;9.222;2023-05-13T02:22:50;9.70;5.60
4054;DHT22;2042;47.956;9.222;2023-05-13T02:25:16;9.70;6.00
4054;DHT22;2042;47.956;9.222;2023-05-13T02:27:42;9.70;6.40
4054;DHT22;2042;47.956;9.222;2023-05-13T02:30:08;9.70;7.00
4054;DHT22;2042;47.956;9.222;2023-05-13T02:32:34;9.70;6.40
4054;DHT22;2042;47.956;9.222;2023-05-13T02:34:59;9.70;6.60
4054;DHT22;2042;47.956;9.222;2023-05-13T02:37:25;9.70;7.00
4054;DHT22;2042;47.956;9.222;2023-05-13T02:39:51;9.70;7.10
4054;DHT22;2042;47.956;9.222;2023-05-13T02:42:17;9.70;7.10
4054;DHT22;2042;47.956;9.222;2023-05-13T02:44:43;9.70;7.20
4054;DHT22;2042;47.956;9.222;2023-05-13T02:47:08;9.70;7.00
4054;DHT22;2042;47.956;9.222;2023-05-13T02:49:34;9.60;7.10
4054;DHT22;2042;47.956;9.222;2023-05-13T02:52:00;9.70;7.80
4054;DHT22;2042;47.956;9.222;2023-05-13T02:54:25;9.60;7.30
4054;DHT22;2042;47.956;9.222;2023-05-13T02:56:51;9.70;7.50
4054;DHT22;2042;47.956;9.222;2023-05-13T02:59:16;9.60;7.30
4054;DHT22;2042;47.956;9.222;2023-05-13T03:01:42;9.60;7.20
4054;DHT22;2042;47.956;9.222;2023-05-13T03:04:07;9.60;7.30
4054;DHT22;2042;47.956;9.222;2023-05-13T03:06:33;9.60;7.50
4054;DHT22;2042;47.956;9.222;2023-05-13T03:08:59;9.60;7.40
4054;DHT22;2042;47.956;9.222;2023-05-13T03:11:24;9.60;7.30
4054;DHT22;2042;47.956;9.222;2023-05-13T03:13:51;9.50;7.40
4054;DHT22;2042;47.956;9.222;2023-05-13T03:16:16;9.50;7.60
4054;DHT22;2042;47.956;9.222;2023-05-13T03:18:42;9.50;7.60
4054;DHT22;2042;47.956;9.222;2023-05-13T03:21:07;9.50;7.50
4054;DHT22;2042;47.956;9.222;2023-05-13T03:23:33;9.50;7.50
4054;DHT22;2042;47.956;9.222;2023-05-13T03:25:59;9.50;7.50
4054;DHT22;2042;47.956;9.222;2023-05-13T03:28:26;9.50;7.50
4054;DHT22;2042;47.956;9.222;2023-05-13T03:30:52;9.40;7.80
4054;DHT22;2042;47.956;9.222;2023-05-13T03:33:17;9.50;8.20
4054;DHT22;2042;47.956;9.222;2023-05-13T03:35:43;9.50;8.90
4054;DHT22;2042;47.956;9.222;2023-05-13T03:38:09;9.50;8.60
4054;DHT22;2042;47.956;9.222;2023-05-13T03:40:34;9.50;8.70
4054;DHT22;2042;47.956;9.222;2023-05-13T03:43:00;9.50;8.70
4054;DHT22;2042;47.956;9.222;2023-05-13T03:45:26;9.50;9.00
4054;DHT22;2042;47.956;9.222;2023-05-13T03:47:51;9.50;9.00
4054;DHT22;2042;47.956;9.222;2023-05-13T03:50:17;9.50;8.80
4054;DHT22;2042;47.956;9.222;2023-05-13T03:52:42;9.50;8.70
4054;DHT22;2042;47.956;9.222;2023-05-13T03:55:08;9.60;8.80
4054;DHT22;2042;47.956;9.222;2023-05-13T03:57:34;9.60;8.90
4054;DHT22;2042;47.956;9.222;2023-05-13T03:59:59;9.60;8.50
4054;DHT22;2042;47.956;9.222;2023-05-13T04:02:25;9.60;8.10
4054;DHT22;2042;47.956;9.222;2023-05-13T04:04:51;9.60;8.10
4054;DHT22;2042;47.956;9.222;2023-05-13T04:07:16;9.50;7.90
4054;DHT22;2042;47.956;9.222;2023-05-13T04:09:42;9.60;8.20
4054;DHT22;2042;47.956;9.222;2023-05-13T04:12:07;9.60;8.10
4054;DHT22;2042;47.956;9.222;2023-05-13T04:14:33;9.60;8.00
4054;DHT22;2042;47.956;9.222;2023-05-13T04:16:59;9.60;8.00
4054;DHT22;2042;47.956;9.222;2023-05-13T04:19:25;9.60;7.80
4054;DHT22;2042;47.956;9.222;2023-05-13T04:21:50;9.60;7.00
4054;DHT22;2042;47.956;9.222;2023-05-13T04:24:16;9.50;6.90
4054;DHT22;2042;47.956;9.222;2023-05-13T04:26:41;9.50;7.00
4054;DHT22;2042;47.956;9.222;2023-05-13T04:29:07;9.50;6.50
4054;DHT22;2042;47.956;9.222;2023-05-13T04:31:32;9.50;6.60
4054;DHT22;2042;47.956;9.222;2023-05-13T04:33:58;9.50;6.20
4054;DHT22;2042;47.956;9.222;2023-05-13T04:36:24;9.50;6.20
4054;DHT22;2042;47.956;9.222;2023-05-13T04:38:49;9.50;6.20
4054;DHT22;2042;47.956;9.222;2023-05-13T04:41:15;9.50;5.90
4054;DHT22;2042;47.956;9.222;2023-05-13T04:43:40;9.50;5.80
4054;DHT22;2042;47.956;9.222;2023-05-13T04:46:06;9.50;5.70
4054;DHT22;2042;47.956;9.222;2023-05-13T04:48:32;9.50;5.50
4054;DHT22;2042;47.956;9.222;2023-05-13T04:50:57;9.50;5.60
4054;DHT22;2042;47.956;9.222;2023-05-13T04:53:23;9.50;5.20
4054;DHT22;2042;47.956;9.222;2023-05-13T04:55:49;9.60;5.40
4054;DHT22;2042;47.956;9.222;2023-05-13T04:58:15;9.60;5.20
4054;DHT22;2042;47.956;9.222;2023-05-13T05:00:41;9.70;5.30
4054;DHT22;2042;47.956;9.222;2023-05-13T05:03:06;9.70;5.40
4054;DHT22;2042;47.956;9.222;2023-05-13T05:05:32;9.80;5.50
4054;DHT22;2042;47.956;9.222;2023-05-13T05:07:57;9.90;5.30
4054;DHT22;2042;47.956;9.222;2023-05-13T05:10:23;9.90;4.50
4054;DHT22;2042;47.956;9.222;2023-05-13T05:12:49;10.00;2.80
4054;DHT22;2042;47.956;9.222;2023-05-13T05:15:18;10.00;2.30
4054;DHT22;2042;47.956;9.222;2023-05-13T05:17:44;10.00;1.70
4054;DHT22;2042;47.956;9.222;2023-05-13T05:20:10;10.00;1.40
4054;DHT22;2042;47.956;9.222;2023-05-13T05:22:36;10.00;1.30
4054;DHT22;2042;47.956;9.222;2023-05-13T05:25:02;10.00;1.30
4054;DHT22;2042;47.956;9.222;2023-05-13T05:27:28;10.10;1.40
4054;DHT22;2042;47.956;9.222;2023-05-13T05:29:53;10.10;1.00
4054;DHT22;2042;47.956;9.222;2023-05-13T05:32:19;10.20;1.00
4054;DHT22;2042;47.956;9.222;2023-05-13T05:34:45;10.20;1.00
4054;DHT22;2042;47.956;9.222;2023-05-13T05:37:10;10.20;1.00
4054;DHT22;2042;47.956;9.222;2023-05-13T05:39:36;10.30;1.00
4054;DHT22;2042;47.956;9.222;2023-05-13T05:42:03;10.30;1.00
4054;DHT22;2042;47.956;9.222;2023-05-13T05:44:28;10.30;1.00
4054;DHT22;2042;47.956;9.222;2023-05-13T05:46:54;10.30;1.00
4054;DHT22;2042;47.956;9.222;2023-05-13T05:49:19;10.40;1.00
4054;DHT22;2042;47.956;9.222;2023-05-13T05:51:45;10.40;1.00
4054;DHT22;2042;47.956;9.222;2023-05-13T05:54:11;10.40;1.00
4054;DHT22;2042;47.956;9.222;2023-05-13T05:56:36;10.50;1.00
4054;DHT22;2042;47.956;9.222;2023-05-13T05:59:02;10.50;1.00
4054;DHT22;2042;47.956;9.222;2023-05-13T06:01:28;10.60;1.00
4054;DHT22;2042;47.956;9.222;2023-05-13T06:03:59;10.60;1.00
4054;DHT22;2042;47.956;9.222;2023-05-13T06:06:24;10.60;1.00
4054;DHT22;2042;47.956;9.222;2023-05-13T06:08:50;10.60;1.00
4054;DHT22;2042;47.956;9.222;2023-05-13T06:11:15;10.60;1.00
4054;DHT22;2042;47.956;9.222;2023-05-13T06:13:41;10.70;1.00
4054;DHT22;2042;47.956;9.222;2023-05-13T06:16:08;10.70;1.00
4054;DHT22;2042;47.956;9.222;2023-05-13T06:18:34;10.70;1.00
4054;DHT22;2042;47.956;9.222;2023-05-13T06:20:59;10.80;1.00
4054;DHT22;2042;47.956;9.222;2023-05-13T06:23:25;10.90;1.00
4054;DHT22;2042;47.956;9.222;2023-05-13T06:25:51;11.10;1.00
4054;DHT22;2042;47.956;9.222;2023-05-13T06:28:16;11.20;1.00
4054;DHT22;2042;47.956;9.222;2023-05-13T06:30:43;11.30;1.00
4054;DHT22;2042;47.956;9.222;2023-05-13T06:33:08;11.30;1.00
4054;DHT22;2042;47.956;9.222;2023-05-13T06:35:36;11.40;1.00
4054;DHT22;2042;47.956;9.222;2023-05-13T06:38:01;11.40;1.00
4054;DHT22;2042;47.956;9.222;2023-05-13T06:40:27;11.50;1.00
4054;DHT22;2042;47.956;9.222;2023-05-13T06:42:53;11.50;1.00
4054;DHT22;2042;47.956;9.222;2023-05-13T06:45:18;11.50;1.00
4054;DHT22;2042;47.956;9.222;2023-05-13T06:47:51;11.50;1.00
4054;DHT22;2042;47.956;9.222;2023-05-13T06:50:17;11.50;1.00
4054;DHT22;2042;47.956;9.222;2023-05-13T06:52:43;11.50;1.00
4054;DHT22;2042;47.956;9.222;2023-05-13T06:55:09;11.50;1.00
4054;DHT22;2042;47.956;9.222;2023-05-13T06:57:35;11.40;1.00
4054;DHT22;2042;47.956;9.222;2023-05-13T07:00:00;11.40;1.00
4054;DHT22;2042;47.956;9.222;2023-05-13T07:02:26;11.40;1.00
4054;DHT22;2042;47.956;9.222;2023-05-13T07:04:52;11.50;1.00
4054;DHT22;2042;47.956;9.222;2023-05-13T07:07:18;11.50;1.00
4054;DHT22;2042;47.956;9.222;2023-05-13T07:09:43;11.60;1.00
4054;DHT22;2042;47.956;9.222;2023-05-13T07:12:09;11.60;1.00
4054;DHT22;2042;47.956;9.222;2023-05-13T07:14:35;11.50;1.00
4054;DHT22;2042;47.956;9.222;2023-05-13T07:17:01;11.60;1.00
4054;DHT22;2042;47.956;9.222;2023-05-13T07:19:28;11.70;1.00
4054;DHT22;2042;47.956;9.222;2023-05-13T07:21:54;11.80;1.00
4054;DHT22;2042;47.956;9.222;2023-05-13T07:24:19;11.90;1.00
4054;DHT22;2042;47.956;9.222;2023-05-13T07:26:45;11.90;1.00
4054;DHT22;2042;47.956;9.222;2023-05-13T07:29:10;12.10;1.00
4054;DHT22;2042;47.956;9.222;2023-05-13T07:31:36;12.20;1.00
4054;DHT22;2042;47.956;9.222;2023-05-13T07:34:02;12.20;1.00
4054;DHT22;2042;47.956;9.222;2023-05-13T07:36:28;12.20;1.00
4054;DHT22;2042;47.956;9.222;2023-05-13T07:38:53;12.10;1.00
4054;DHT22;2042;47.956;9.222;2023-05-13T07:41:19;12.10;1.00
4054;DHT22;2042;47.956;9.222;2023-05-13T07:43:45;12.20;1.00
4054;DHT22;2042;47.956;9.222;2023-05-13T07:46:11;12.30;1.00
4054;DHT22;2042;47.956;9.222;2023-05-13T07:48:36;12.50;1.00
4054;DHT22;2042;47.956;9.222;2023-05-13T07:51:02;12.60;1.00
4054;DHT22;2042;47.956;9.222;2023-05-13T07:53:28;12.70;1.00
4054;DHT22;2042;47.956;9.222;2023-05-13T07:55:53;12.70;1.00
4054;DHT22;2042;47.956;9.222;2023-05-13T07:58:19;12.80;1.00
4054;DHT22;2042;47.956;9.222;2023-05-13T08:00:45;12.80;1.00
4054;DHT22;2042;47.956;9.222;2023-05-13T08:03:11;12.80;1.00
4054;DHT22;2042;47.956;9.222;2023-05-13T08:05:37;12.70;1.00
4054;DHT22;2042;47.956;9.222;2023-05-13T08:08:02;12.70;1.00
4054;DHT22;2042;47.956;9.222;2023-05-13T08:10:28;12.70;1.00
4054;DHT22;2042;47.956;9.222;2023-05-13T08:12:55;12.90;1.00
4054;DHT22;2042;47.956;9.222;2023-05-13T08:15:22;12.90;1.00
4054;DHT22;2042;47.956;9.222;2023-05-13T08:17:48;12.90;1.00
4054;DHT22;2042;47.956;9.222;2023-05-13T08:20:14;12.80;1.00
4054;DHT22;2042;47.956;9.222;2023-05-13T08:22:40;12.70;1.00
4054;DHT22;2042;47.956;9.222;2023-05-13T08:25:07;12.70;1.00
4054;DHT22;2042;47.956;9.222;2023-05-13T08:27:33;12.60;1.00
4054;DHT22;2042;47.956;9.222;2023-05-13T08:29:59;12.50;1.00
4054;DHT22;2042;47.956;9.222;2023-05-13T08:32:27;12.40;1.00
4054;DHT22;2042;47.956;9.222;2023-05-13T08:34:53;12.40;1.00
4054;DHT22;2042;47.956;9.222;2023-05-13T08:37:18;12.50;1.00
4054;DHT22;2042;47.956;9.222;2023-05-13T08:39:44;12.60;1.00
4054;DHT22;2042;47.956;9.222;2023-05-13T08:42:10;12.90;1.00
4054;DHT22;2042;47.956;9.222;2023-05-13T08:44:38;13.00;1.00
4054;DHT22;2042;47.956;9.222;2023-05-13T08:49:49;13.20;1.00
4054;DHT22;2042;47.956;9.222;2023-05-13T08:52:17;13.20;1.00
4054;DHT22;2042;47.956;9.222;2023-05-13T08:54:43;13.20;1.00
4054;DHT22;2042;47.956;9.222;2023-05-13T08:57:10;13.00;1.00
4054;DHT22;2042;47.956;9.222;2023-05-13T08:59:35;12.90;1.00
4054;DHT22;2042;47.956;9.222;2023-05-13T09:02:03;12.90;1.00
4054;DHT22;2042;47.956;9.222;2023-05-13T09:04:29;12.80;1.00
4054;DHT22;2042;47.956;9.222;2023-05-13T09:06:55;12.70;1.00
4054;DHT22;2042;47.956;9.222;2023-05-13T09:09:21;12.60;1.00
4054;DHT22;2042;47.956;9.222;2023-05-13T09:11:47;12.60;1.00
4054;DHT22;2042;47.956;9.222;2023-05-13T09:14:13;12.60;1.00
4054;DHT22;2042;47.956;9.222;2023-05-13T09:16:42;12.50;1.00
4054;DHT22;2042;47.956;9.222;2023-05-13T09:19:08;12.50;1.00
4054;DHT22;2042;47.956;9.222;2023-05-13T09:21:35;12.30;1.00
4054;DHT22;2042;47.956;9.222;2023-05-13T09:24:05;12.30;1.00
4054;DHT22;2042;47.956;9.222;2023-05-13T09:26:32;12.30;1.00
4054;DHT22;2042;47.956;9.222;2023-05-13T09:29:17;12.30;1.00
4054;DHT22;2042;47.956;9.222;2023-05-13T09:31:55;12.30;1.00
4054;DHT22;2042;47.956;9.222;2023-05-13T09:34:33;12.20;1.00
4054;DHT22;2042;47.956;9.222;2023-05-13T09:37:04;12.20;1.00
4054;DHT22;2042;47.956;9.222;2023-05-13T09:39:40;12.20;1.00
4054;DHT22;2042;47.956;9.222;2023-05-13T09:42:14;12.20;1.00
4054;DHT22;2042;47.956;9.222;2023-05-13T09:44:42;12.20;1.00
4054;DHT22;2042;47.956;9.222;2023-05-13T09:47:15;12.30;1.00
4054;DHT22;2042;47.956;9.222;2023-05-13T09:49:43;12.30;1.00
4054;DHT22;2042;47.956;9.222;2023-05-13T09:52:09;12.20;1.00
4054;DHT22;2042;47.956;9.222;2023-05-13T09:54:36;12.10;1.00
4054;DHT22;2042;47.956;9.222;2023-05-13T09:57:03;12.10;1.00
4054;DHT22;2042;47.956;9.222;2023-05-13T09:59:33;12.20;1.00
4054;DHT22;2042;47.956;9.222;2023-05-13T10:02:03;12.30;1.00
4054;DHT22;2042;47.956;9.222;2023-05-13T10:04:30;12.40;1.00
4054;DHT22;2042;47.956;9.222;2023-05-13T10:06:57;12.40;1.00
4054;DHT22;2042;47.956;9.222;2023-05-13T10:09:25;12.60;1.00
4054;DHT22;2042;47.956;9.222;2023-05-13T10:11:54;12.80;1.00
4054;DHT22;2042;47.956;9.222;2023-05-13T10:14:20;12.80;1.00
4054;DHT22;2042;47.956;9.222;2023-05-13T10:16:46;12.70;1.00
4054;DHT22;2042;47.956;9.222;2023-05-13T10:19:13;12.50;1.00
4054;DHT22;2042;47.956;9.222;2023-05-13T10:21:40;12.30;1.00
4054;DHT22;2042;47.956;9.222;2023-05-13T10:24:06;12.20;1.00
4054;DHT22;2042;47.956;9.222;2023-05-13T10:26:33;12.20;1.00
4054;DHT22;2042;47.956;9.222;2023-05-13T10:28:58;12.20;1.00
4054;DHT22;2042;47.956;9.222;2023-05-13T10:31:25;12.20;1.00
4054;DHT22;2042;47.956;9.222;2023-05-13T10:33:52;12.10;1.00
4054;DHT22;2042;47.956;9.222;2023-05-13T10:42:22;12.00;1.00
4054;DHT22;2042;47.956;9.222;2023-05-13T10:44:53;12.00;1.00
4054;DHT22;2042;47.956;9.222;2023-05-13T10:47:19;12.00;1.00
4054;DHT22;2042;47.956;9.222;2023-05-13T10:49:52;12.10;1.00
4054;DHT22;2042;47.956;9.222;2023-05-13T10:52:18;12.00;1.00
4054;DHT22;2042;47.956;9.222;2023-05-13T10:54:59;12.10;1.00
4054;DHT22;2042;47.956;9.222;2023-05-13T10:57:36;12.30;1.00
4054;DHT22;2042;47.956;9.222;2023-05-13T11:00:15;12.40;1.00
4054;DHT22;2042;47.956;9.222;2023-05-13T11:02:43;12.60;1.00
4054;DHT22;2042;47.956;9.222;2023-05-13T11:05:14;12.70;1.00
4054;DHT22;2042;47.956;9.222;2023-05-13T11:07:54;13.00;1.00
4054;DHT22;2042;47.956;9.222;2023-05-13T11:10:27;13.20;1.00
4054;DHT22;2042;47.956;9.222;2023-05-13T11:15:51;13.30;1.00
4054;DHT22;2042;47.956;9.222;2023-05-13T11:18:18;13.40;1.00
4054;DHT22;2042;47.956;9.222;2023-05-13T11:20:54;13.40;1.00
4054;DHT22;2042;47.956;9.222;2023-05-13T11:23:20;13.30;1.00
4054;DHT22;2042;47.956;9.222;2023-05-13T11:26:13;13.30;1.00
4054;DHT22;2042;47.956;9.222;2023-05-13T11:31:48;13.10;1.00
4054;DHT22;2042;47.956;9.222;2023-05-13T11:34:17;13.20;1.00
4054;DHT22;2042;47.956;9.222;2023-05-13T11:36:50;13.30;1.00
4054;DHT22;2042;47.956;9.222;2023-05-13T11:39:20;13.40;1.00
4054;DHT22;2042;47.956;9.222;2023-05-13T11:41:48;13.60;1.00
4054;DHT22;2042;47.956;9.222;2023-05-13T11:44:19;13.70;1.00
4054;DHT22;2042;47.956;9.222;2023-05-13T11:46:55;13.80;1.00
4054;DHT22;2042;47.956;9.222;2023-05-13T11:52:08;14.20;1.00
4054;DHT22;2042;47.956;9.222;2023-05-13T11:57:14;14.50;1.00
4054;DHT22;2042;47.956;9.222;2023-05-13T11:59:40;14.70;1.00
4054;DHT22;2042;47.956;9.222;2023-05-13T12:02:06;15.00;1.00
4054;DHT22;2042;47.956;9.222;2023-05-13T12:04:31;15.30;1.00
4054;DHT22;2042;47.956;9.222;2023-05-13T12:06:57;15.60;1.00
4054;DHT22;2042;47.956;9.222;2023-05-13T12:09:23;15.70;1.00
4054;DHT22;2042;47.956;9.222;2023-05-13T12:11:50;15.90;1.00
4054;DHT22;2042;47.956;9.222;2023-05-13T12:14:20;16.00;1.00
4054;DHT22;2042;47.956;9.222;2023-05-13T12:16:47;15.90;1.00
4054;DHT22;2042;47.956;9.222;2023-05-13T12:19:13;15.80;1.00
4054;DHT22;2042;47.956;9.222;2023-05-13T12:21:38;15.90;1.00
4054;DHT22;2042;47.956;9.222;2023-05-13T12:24:20;15.90;1.00
4054;DHT22;2042;47.956;9.222;2023-05-13T12:26:47;15.70;1.00
4054;DHT22;2042;47.956;9.222;2023-05-13T12:29:13;15.60;1.00
4054;DHT22;2042;47.956;9.222;2023-05-13T12:31:41;15.50;1.00
4054;DHT22;2042;47.956;9.222;2023-05-13T12:34:07;15.50;1.00
4054;DHT22;2042;47.956;9.222;2023-05-13T12:36:36;15.50;1.00
4054;DHT22;2042;47.956;9.222;2023-05-13T12:39:07;15.20;1.00
4054;DHT22;2042;47.956;9.222;2023-05-13T12:41:40;14.90;1.00
4054;DHT22;2042;47.956;9.222;2023-05-13T12:44:14;14.60;1.00
4054;DHT22;2042;47.956;9.222;2023-05-13T12:46:50;14.20;1.00
4054;DHT22;2042;47.956;9.222;2023-05-13T12:49:16;13.90;1.00
4054;DHT22;2042;47.956;9.222;2023-05-13T12:51:41;13.80;1.00
4054;DHT22;2042;47.956;9.222;2023-05-13T12:54:07;13.70;1.00
4054;DHT22;2042;47.956;9.222;2023-05-13T12:56:33;13.50;1.00
4054;DHT22;2042;47.956;9.222;2023-05-13T12:58:58;13.60;1.00
4054;DHT22;2042;47.956;9.222;2023-05-13T13:01:24;13.50;1.00
4054;DHT22;2042;47.956;9.222;2023-05-13T13:03:49;13.60;1.00
4054;DHT22;2042;47.956;9.222;2023-05-13T13:06:16;13.80;1.00
4054;DHT22;2042;47.956;9.222;2023-05-13T13:08:42;13.90;1.00
4054;DHT22;2042;47.956;9.222;2023-05-13T13:11:07;13.90;1.00
4054;DHT22;2042;47.956;9.222;2023-05-13T13:13:33;14.00;1.00
4054;DHT22;2042;47.956;9.222;2023-05-13T13:15:59;14.10;1.00
4054;DHT22;2042;47.956;9.222;2023-05-13T13:18:25;14.10;1.00
4054;DHT22;2042;47.956;9.222;2023-05-13T13:20:51;14.30;1.00
4054;DHT22;2042;47.956;9.222;2023-05-13T13:23:18;14.70;1.00
4054;DHT22;2042;47.956;9.222;2023-05-13T13:25:44;14.90;1.00
4054;DHT22;2042;47.956;9.222;2023-05-13T13:28:09;14.90;1.00
4054;DHT22;2042;47.956;9.222;2023-05-13T13:30:36;14.90;1.00
4054;DHT22;2042;47.956;9.222;2023-05-13T13:33:01;14.80;1.00
4054;DHT22;2042;47.956;9.222;2023-05-13T13:35:27;14.50;1.00
4054;DHT22;2042;47.956;9.222;2023-05-13T13:37:52;14.30;1.00
4054;DHT22;2042;47.956;9.222;2023-05-13T13:40:19;14.00;1.00
4054;DHT22;2042;47.956;9.222;2023-05-13T13:42:45;13.80;1.00
4054;DHT22;2042;47.956;9.222;2023-05-13T13:45:11;13.60;1.00
4054;DHT22;2042;47.956;9.222;2023-05-13T13:47:37;13.50;1.00
4054;DHT22;2042;47.956;9.222;2023-05-13T13:50:04;13.50;1.00
4054;DHT22;2042;47.956;9.222;2023-05-13T13:52:30;13.50;1.00
4054;DHT22;2042;47.956;9.222;2023-05-13T13:54:55;13.70;1.00
4054;DHT22;2042;47.956;9.222;2023-05-13T13:57:21;13.80;1.00
4054;DHT22;2042;47.956;9.222;2023-05-13T13:59:46;13.80;1.00
4054;DHT22;2042;47.956;9.222;2023-05-13T14:02:12;13.80;1.00
4054;DHT22;2042;47.956;9.222;2023-05-13T14:04:38;13.70;1.00
4054;DHT22;2042;47.956;9.222;2023-05-13T14:07:04;13.70;1.00
4054;DHT22;2042;47.956;9.222;2023-05-13T14:09:29;13.70;1.00
4054;DHT22;2042;47.956;9.222;2023-05-13T14:11:57;13.70;1.00
4054;DHT22;2042;47.956;9.222;2023-05-13T14:14:22;13.80;1.00
4054;DHT22;2042;47.956;9.222;2023-05-13T14:16:49;13.80;1.00
4054;DHT22;2042;47.956;9.222;2023-05-13T14:19:15;13.80;1.00
4054;DHT22;2042;47.956;9.222;2023-05-13T14:21:44;13.90;1.00
4054;DHT22;2042;47.956;9.222;2023-05-13T14:24:10;14.00;1.00
4054;DHT22;2042;47.956;9.222;2023-05-13T14:26:36;14.20;1.00
4054;DHT22;2042;47.956;9.222;2023-05-13T14:29:02;14.30;1.00
4054;DHT22;2042;47.956;9.222;2023-05-13T14:31:28;14.30;1.00
4054;DHT22;2042;47.956;9.222;2023-05-13T14:33:54;14.10;1.00
4054;DHT22;2042;47.956;9.222;2023-05-13T14:36:19;13.90;1.00
4054;DHT22;2042;47.956;9.222;2023-05-13T14:38:46;13.80;1.00
4054;DHT22;2042;47.956;9.222;2023-05-13T14:41:12;13.80;1.00
4054;DHT22;2042;47.956;9.222;2023-05-13T14:43:44;13.80;1.00
4054;DHT22;2042;47.956;9.222;2023-05-13T14:46:10;13.90;1.00
4054;DHT22;2042;47.956;9.222;2023-05-13T14:48:36;14.10;1.00
4054;DHT22;2042;47.956;9.222;2023-05-13T14:51:02;14.30;1.00
4054;DHT22;2042;47.956;9.222;2023-05-13T14:53:27;14.50;1.00
4054;DHT22;2042;47.956;9.222;2023-05-13T14:55:53;14.80;1.00
4054;DHT22;2042;47.956;9.222;2023-05-13T14:58:19;14.80;1.00
4054;DHT22;2042;47.956;9.222;2023-05-13T15:00:45;14.60;1.00
4054;DHT22;2042;47.956;9.222;2023-05-13T15:03:11;14.20;1.00
4054;DHT22;2042;47.956;9.222;2023-05-13T15:05:37;13.90;1.00
4054;DHT22;2042;47.956;9.222;2023-05-13T15:08:02;13.50;1.00
4054;DHT22;2042;47.956;9.222;2023-05-13T15:10:28;13.20;1.00
4054;DHT22;2042;47.956;9.222;2023-05-13T15:12:53;12.90;1.00
4054;DHT22;2042;47.956;9.222;2023-05-13T15:15:19;12.70;1.00
4054;DHT22;2042;47.956;9.222;2023-05-13T15:17:45;12.50;1.00
4054;DHT22;2042;47.956;9.222;2023-05-13T15:20:11;12.50;1.00
4054;DHT22;2042;47.956;9.222;2023-05-13T15:22:36;12.40;1.00
4054;DHT22;2042;47.956;9.222;2023-05-13T15:25:02;12.30;1.00
4054;DHT22;2042;47.956;9.222;2023-05-13T15:27:28;12.30;1.00
4054;DHT22;2042;47.956;9.222;2023-05-13T15:29:54;12.20;1.00
4054;DHT22;2042;47.956;9.222;2023-05-13T15:32:20;12.20;1.00
4054;DHT22;2042;47.956;9.222;2023-05-13T15:34:45;12.20;1.00
4054;DHT22;2042;47.956;9.222;2023-05-13T15:37:11;12.30;1.00
4054;DHT22;2042;47.956;9.222;2023-05-13T15:39:37;12.30;1.00
4054;DHT22;2042;47.956;9.222;2023-05-13T15:42:02;12.30;1.00
4054;DHT22;2042;47.956;9.222;2023-05-13T15:44:28;12.30;1.00
4054;DHT22;2042;47.956;9.222;2023-05-13T15:46:54;12.40;1.00
4054;DHT22;2042;47.956;9.222;2023-05-13T15:49:19;12.40;1.00
4054;DHT22;2042;47.956;9.222;2023-05-13T15:51:45;12.50;1.00
4054;DHT22;2042;47.956;9.222;2023-05-13T15:54:11;12.50;1.00
4054;DHT22;2042;47.956;9.222;2023-05-13T15:56:36;12.50;1.00
4054;DHT22;2042;47.956;9.222;2023-05-13T15:59:02;12.40;1.00
4054;DHT22;2042;47.956;9.222;2023-05-13T16:01:28;12.30;1.00
4054;DHT22;2042;47.956;9.222;2023-05-13T16:03:53;12.40;1.00
4054;DHT22;2042;47.956;9.222;2023-05-13T16:06:19;12.30;1.00
4054;DHT22;2042;47.956;9.222;2023-05-13T16:08:44;12.40;1.00
4054;DHT22;2042;47.956;9.222;2023-05-13T16:11:10;12.40;1.00
4054;DHT22;2042;47.956;9.222;2023-05-13T16:13:38;12.30;1.00
4054;DHT22;2042;47.956;9.222;2023-05-13T16:16:05;12.30;1.00
4054;DHT22;2042;47.956;9.222;2023-05-13T16:18:30;12.30;1.00
4054;DHT22;2042;47.956;9.222;2023-05-13T16:20:56;12.30;1.00
4054;DHT22;2042;47.956;9.222;2023-05-13T16:23:22;12.30;1.00
4054;DHT22;2042;47.956;9.222;2023-05-13T16:25:47;12.40;1.00
4054;DHT22;2042;47.956;9.222;2023-05-13T16:28:13;12.40;1.00
4054;DHT22;2042;47.956;9.222;2023-05-13T16:30:38;12.40;1.00
4054;DHT22;2042;47.956;9.222;2023-05-13T16:33:05;12.30;1.00
4054;DHT22;2042;47.956;9.222;2023-05-13T16:35:33;12.30;1.00
4054;DHT22;2042;47.956;9.222;2023-05-13T16:37:59;12.30;1.00
4054;DHT22;2042;47.956;9.222;2023-05-13T16:40:24;12.30;1.00
4054;DHT22;2042;47.956;9.222;2023-05-13T16:42:50;12.30;1.00
4054;DHT22;2042;47.956;9.222;2023-05-13T16:45:16;12.30;1.00